createdAt,value
2018-01-22T00:01:37.283Z,7.80
2018-01-22T00:04:05.000Z,7.33
2018-01-22T00:06:32.815Z,6.80
2018-01-22T00:09:00.635Z,6.13
2018-01-22T00:11:28.218Z,6.67
2018-01-22T00:13:55.738Z,5.80
2018-01-22T00:16:23.490Z,5.90
2018-01-22T00:18:51.205Z,12.43
2018-01-22T00:21:19.993Z,7.07
2018-01-22T00:23:47.569Z,6.97
2018-01-22T00:26:15.095Z,6.23
2018-01-22T00:28:42.618Z,6.10
2018-01-22T00:31:10.193Z,5.40
2018-01-22T00:33:37.815Z,4.93
2018-01-22T00:36:05.350Z,4.40
2018-01-22T00:38:33.151Z,5.00
2018-01-22T00:41:00.870Z,3.70
2018-01-22T00:43:28.398Z,6.57
2018-01-22T00:45:56.111Z,6.90
2018-01-22T00:48:23.661Z,5.23
2018-01-22T00:50:51.187Z,4.07
2018-01-22T00:53:18.753Z,4.40
2018-01-22T00:55:46.286Z,5.43
2018-01-22T00:58:13.813Z,3.97
2018-01-22T01:00:41.510Z,4.37
2018-01-22T01:03:09.037Z,3.47
2018-01-22T01:05:36.568Z,3.50
2018-01-22T01:08:04.166Z,3.93
2018-01-22T01:10:31.746Z,4.30
2018-01-22T01:12:59.333Z,4.67
2018-01-22T01:15:26.910Z,4.67
2018-01-22T01:17:54.437Z,4.20
2018-01-22T01:20:22.057Z,3.90
2018-01-22T01:22:49.872Z,3.60
2018-01-22T01:25:17.401Z,4.13
2018-01-22T01:27:45.111Z,4.40
2018-01-22T01:30:12.933Z,3.97
2018-01-22T01:32:40.469Z,4.20
2018-01-22T01:35:08.213Z,4.10
2018-01-22T01:37:35.882Z,4.00
2018-01-22T01:40:03.699Z,3.37
2018-01-22T01:42:31.315Z,3.80
2018-01-22T01:44:58.895Z,3.47
2018-01-22T01:47:26.409Z,3.50
2018-01-22T01:49:53.967Z,3.47
2018-01-22T01:52:21.938Z,3.53
2018-01-22T01:54:49.706Z,4.10
2018-01-22T01:57:17.322Z,3.97
2018-01-22T01:59:44.889Z,3.57
2018-01-22T02:02:12.414Z,3.30
2018-01-22T02:04:39.941Z,3.57
2018-01-22T02:07:07.513Z,3.80
2018-01-22T02:09:35.033Z,3.83
2018-01-22T02:12:02.563Z,3.50
2018-01-22T02:14:30.137Z,3.40
2018-01-22T02:16:57.706Z,3.97
2018-01-22T02:19:25.382Z,3.90
2018-01-22T02:21:53.043Z,3.00
2018-01-22T02:24:20.727Z,3.30
2018-01-22T02:26:48.437Z,3.40
2018-01-22T02:29:16.005Z,3.43
2018-01-22T02:31:43.530Z,3.13
2018-01-22T02:34:11.054Z,2.80
2018-01-22T02:36:38.618Z,2.70
2018-01-22T02:39:06.134Z,3.10
2018-01-22T02:41:33.698Z,5.70
2018-01-22T02:44:01.265Z,3.00
2018-01-22T02:46:28.978Z,3.90
2018-01-22T02:48:56.511Z,4.73
2018-01-22T02:51:24.314Z,4.13
2018-01-22T02:53:51.858Z,3.87
2018-01-22T02:56:19.443Z,3.30
2018-01-22T02:58:47.010Z,2.93
2018-01-22T03:01:14.538Z,3.23
2018-01-22T03:03:42.303Z,3.47
2018-01-22T03:06:09.874Z,2.50
2018-01-22T03:08:37.539Z,2.93
2018-01-22T03:11:05.255Z,2.87
2018-01-22T03:13:32.838Z,3.17
2018-01-22T03:16:00.430Z,2.90
2018-01-22T03:18:27.990Z,3.23
2018-01-22T03:20:55.558Z,3.60
2018-01-22T03:23:23.356Z,2.43
2018-01-22T03:25:51.264Z,2.80
2018-01-22T03:28:18.833Z,3.53
2018-01-22T03:30:46.501Z,2.90
2018-01-22T03:33:14.026Z,3.10
2018-01-22T03:35:41.604Z,3.30
2018-01-22T03:38:09.134Z,3.97
2018-01-22T03:40:36.658Z,3.20
2018-01-22T03:43:04.490Z,2.80
2018-01-22T03:45:32.108Z,3.90
2018-01-22T03:47:59.639Z,3.30
2018-01-22T03:50:27.213Z,4.00
2018-01-22T03:52:54.738Z,3.57
2018-01-22T03:55:22.267Z,4.70
2018-01-22T03:57:49.847Z,7.70
2018-01-22T04:00:17.614Z,7.23
2018-01-22T04:02:45.234Z,4.23
2018-01-22T04:05:12.809Z,3.50
2018-01-22T04:07:40.470Z,5.60
2018-01-22T04:10:08.006Z,5.13
2018-01-22T04:12:35.702Z,5.70
2018-01-22T04:15:03.274Z,5.50
2018-01-22T04:17:31.039Z,4.47
2018-01-22T04:19:58.610Z,5.20
2018-01-22T04:22:26.190Z,4.97
2018-01-22T04:24:53.893Z,4.80
2018-01-22T04:27:21.714Z,4.70
2018-01-22T04:29:49.428Z,4.70
2018-01-22T04:32:17.014Z,4.90
2018-01-22T04:34:44.682Z,5.20
2018-01-22T04:37:12.214Z,4.50
2018-01-22T04:39:39.742Z,5.30
2018-01-22T04:42:07.342Z,3.90
2018-01-22T04:44:34.870Z,4.73
2018-01-22T04:47:02.393Z,4.90
2018-01-22T04:49:30.071Z,4.50
2018-01-22T04:51:57.635Z,4.90
2018-01-22T04:54:25.614Z,4.77
2018-01-22T04:56:53.181Z,4.90
2018-01-22T04:59:20.706Z,5.10
2018-01-22T05:01:48.281Z,4.93
2018-01-22T05:04:16.079Z,4.70
2018-01-22T05:06:43.694Z,5.37
2018-01-22T05:09:11.229Z,5.10
2018-01-22T05:11:38.813Z,6.17
2018-01-22T05:14:06.402Z,10.20
2018-01-22T05:16:33.930Z,6.60
2018-01-22T05:19:01.787Z,5.73
2018-01-22T05:21:29.306Z,5.27
2018-01-22T05:23:56.930Z,5.30
2018-01-22T05:26:24.646Z,5.30
2018-01-22T05:28:52.174Z,6.10
2018-01-22T05:31:19.694Z,6.53
2018-01-22T05:33:47.292Z,6.73
2018-01-22T05:36:14.826Z,6.00
2018-01-22T05:38:42.374Z,5.60
2018-01-22T05:41:09.946Z,5.77
2018-01-22T05:43:37.472Z,6.60
2018-01-22T05:46:05.255Z,7.10
2018-01-22T05:48:32.999Z,5.87
2018-01-22T05:51:00.719Z,5.83
2018-01-22T05:53:28.439Z,6.00
2018-01-22T05:55:56.003Z,6.17
2018-01-22T05:58:23.570Z,6.70
2018-01-22T06:00:51.174Z,6.50
2018-01-22T06:03:18.707Z,6.27
2018-01-22T06:05:46.315Z,5.57
2018-01-22T06:08:13.947Z,5.90
2018-01-22T06:10:41.659Z,5.17
2018-01-22T06:13:09.352Z,6.27
2018-01-22T06:15:36.909Z,6.90
2018-01-22T06:18:04.538Z,6.50
2018-01-22T06:20:32.231Z,6.47
2018-01-22T06:22:59.761Z,5.30
2018-01-22T06:25:27.346Z,5.40
2018-01-22T06:27:55.095Z,7.50
2018-01-22T06:30:22.688Z,12.83
2018-01-22T06:32:50.242Z,6.13
2018-01-22T06:35:17.943Z,5.20
2018-01-22T06:37:45.547Z,4.00
2018-01-22T06:40:13.086Z,5.73
2018-01-22T06:42:40.726Z,23.60
2018-01-22T06:45:08.276Z,9.10
2018-01-22T06:47:35.818Z,17.97
2018-01-22T06:50:03.525Z,6.43
2018-01-22T06:52:31.064Z,7.93
2018-01-22T06:54:58.880Z,5.70
2018-01-22T06:57:26.422Z,7.57
2018-01-22T06:59:53.954Z,8.03
2018-01-22T07:02:21.497Z,7.77
2018-01-22T07:04:49.064Z,10.97
2018-01-22T07:07:16.654Z,6.83
2018-01-22T07:09:44.290Z,11.60
2018-01-22T07:12:11.843Z,9.47
2018-01-22T07:14:39.373Z,6.27
2018-01-22T07:17:07.698Z,7.53
2018-01-22T07:19:35.400Z,7.47
2018-01-22T07:22:03.128Z,13.77
2018-01-22T07:24:30.851Z,5.43
2018-01-22T07:26:58.417Z,7.20
2018-01-22T07:29:26.053Z,5.70
2018-01-22T07:31:53.661Z,5.63
2018-01-22T07:34:21.275Z,6.83
2018-01-22T07:36:49.010Z,7.60
2018-01-22T07:39:16.641Z,9.13
2018-01-22T07:41:44.343Z,11.17
2018-01-22T07:44:11.942Z,7.40
2018-01-22T07:46:39.758Z,8.97
2018-01-22T07:49:07.491Z,9.90
2018-01-22T07:51:35.496Z,16.23
2018-01-22T07:54:03.390Z,8.53
2018-01-22T07:56:31.066Z,7.27
2018-01-22T07:58:58.654Z,8.30
2018-01-22T08:01:26.328Z,16.10
2018-01-22T08:03:53.953Z,6.93
2018-01-22T08:06:21.853Z,6.83
2018-01-22T08:08:49.689Z,8.10
2018-01-22T08:11:17.341Z,8.23
2018-01-22T08:13:44.926Z,6.97
2018-01-22T08:16:12.639Z,8.53
2018-01-22T08:18:40.364Z,6.50
2018-01-22T08:21:08.110Z,8.30
2018-01-22T08:23:35.651Z,7.90
2018-01-22T08:26:03.350Z,14.17
2018-01-22T08:28:30.889Z,29.20
2018-01-22T08:30:59.062Z,15.50
2018-01-22T08:33:26.711Z,15.07
2018-01-22T08:35:54.450Z,10.73
2018-01-22T08:38:22.825Z,5.87
2018-01-22T08:40:50.460Z,8.87
2018-01-22T08:43:18.042Z,10.27
2018-01-22T08:45:45.595Z,12.23
2018-01-22T08:48:13.162Z,7.53
2018-01-22T08:50:40.934Z,11.63
2018-01-22T08:53:08.575Z,7.97
2018-01-22T08:55:36.158Z,24.97
2018-01-22T08:58:03.690Z,7.73
2018-01-22T09:00:31.230Z,10.77
2018-01-22T09:02:58.810Z,7.73
2018-01-22T09:05:26.479Z,9.40
2018-01-22T09:07:54.192Z,48.07
2018-01-22T09:10:21.879Z,9.67
2018-01-22T09:12:49.594Z,17.47
2018-01-22T09:15:17.194Z,13.10
2018-01-22T09:17:44.710Z,7.23
2018-01-22T09:20:12.764Z,54.93
2018-01-22T09:22:41.058Z,7.37
2018-01-22T09:25:08.884Z,14.90
2018-01-22T09:27:36.456Z,9.33
2018-01-22T09:30:04.030Z,11.23
2018-01-22T09:32:31.744Z,6.97
2018-01-22T09:34:59.358Z,9.60
2018-01-22T09:37:26.992Z,9.83
2018-01-22T09:39:54.619Z,13.33
2018-01-22T09:42:22.141Z,6.50
2018-01-22T09:44:50.026Z,6.87
2018-01-22T09:47:17.551Z,7.20
2018-01-22T09:49:45.077Z,9.43
2018-01-22T09:52:12.654Z,10.20
2018-01-22T09:54:40.187Z,34.30
2018-01-22T09:57:07.829Z,24.47
2018-01-22T09:59:35.504Z,37.27
2018-01-22T10:02:03.030Z,12.37
2018-01-22T10:04:30.568Z,9.47
2018-01-22T10:06:58.098Z,18.73
2018-01-22T10:09:25.799Z,9.77
2018-01-22T10:11:53.393Z,10.07
2018-01-22T10:14:21.544Z,20.03
2018-01-22T10:16:49.107Z,31.33
2018-01-22T10:19:16.674Z,31.17
2018-01-22T10:21:44.498Z,22.73
2018-01-22T10:24:12.039Z,18.93
2018-01-22T10:26:39.835Z,8.43
2018-01-22T10:29:07.652Z,9.93
2018-01-22T10:31:35.182Z,9.83
2018-01-22T10:34:02.888Z,7.13
2018-01-22T10:36:30.508Z,8.83
2018-01-22T10:38:58.038Z,8.57
2018-01-22T10:41:25.741Z,7.90
2018-01-22T10:43:53.360Z,8.73
2018-01-22T10:46:20.983Z,6.03
2018-01-22T10:48:48.521Z,11.17
2018-01-22T10:51:16.413Z,14.20
2018-01-22T10:53:43.958Z,21.87
2018-01-22T10:56:11.541Z,13.87
2018-01-22T10:58:39.126Z,35.17
2018-01-22T11:01:06.675Z,26.27
2018-01-22T11:03:34.205Z,34.37
2018-01-22T11:06:01.746Z,6.30
2018-01-22T11:08:29.286Z,13.93
2018-01-22T11:10:56.973Z,11.80
2018-01-22T11:13:25.042Z,13.53
2018-01-22T11:15:58.286Z,17.13
2018-01-22T11:18:26.031Z,17.23
2018-01-22T11:20:53.574Z,8.00
2018-01-22T11:23:21.118Z,9.83
2018-01-22T11:25:48.875Z,7.03
2018-01-22T11:28:16.458Z,8.93
2018-01-22T11:30:43.998Z,9.10
2018-01-22T11:33:11.534Z,8.27
2018-01-22T11:35:39.085Z,8.23
2018-01-22T11:38:06.770Z,7.03
2018-01-22T11:40:34.494Z,7.20
2018-01-22T11:43:02.118Z,11.60
2018-01-22T11:45:29.831Z,8.77
2018-01-22T11:47:57.762Z,10.20
2018-01-22T11:50:25.296Z,6.70
2018-01-22T11:52:53.023Z,6.17
2018-01-22T11:55:20.560Z,7.80
2018-01-22T11:57:48.118Z,9.53
2018-01-22T12:00:15.727Z,11.33
2018-01-22T12:02:43.262Z,12.77
2018-01-22T12:05:11.062Z,6.90
2018-01-22T12:07:38.642Z,5.27
2018-01-22T12:10:06.310Z,8.47
2018-01-22T12:12:33.864Z,8.33
2018-01-22T12:15:01.522Z,7.70
2018-01-22T12:17:29.102Z,9.67
2018-01-22T12:19:56.846Z,8.30
2018-01-22T12:22:24.736Z,13.53
2018-01-22T12:24:52.313Z,11.03
2018-01-22T12:27:20.031Z,33.73
2018-01-22T12:29:47.566Z,8.83
2018-01-22T12:32:15.367Z,8.43
2018-01-22T12:34:42.913Z,20.47
2018-01-22T12:37:10.453Z,18.57
2018-01-22T12:39:38.047Z,8.23
2018-01-22T12:42:05.591Z,40.20
2018-01-22T12:44:33.130Z,22.13
2018-01-22T12:47:00.765Z,31.17
2018-01-22T12:49:28.399Z,25.90
2018-01-22T12:51:55.939Z,9.30
2018-01-22T12:54:23.491Z,12.00
2018-01-22T12:56:51.047Z,9.50
2018-01-22T12:59:18.754Z,11.30
2018-01-22T13:01:46.319Z,10.33
2018-01-22T13:04:13.862Z,12.00
2018-01-22T13:06:41.507Z,11.37
2018-01-22T13:09:09.042Z,23.23
2018-01-22T13:11:36.754Z,18.00
2018-01-22T13:14:04.342Z,13.63
2018-01-22T13:16:31.872Z,49.57
2018-01-22T13:18:59.412Z,18.47
2018-01-22T13:21:26.998Z,17.93
2018-01-22T13:23:54.598Z,10.10
2018-01-22T13:26:22.134Z,9.73
2018-01-22T13:28:49.774Z,28.20
2018-01-22T13:31:17.310Z,15.00
2018-01-22T13:33:44.847Z,29.43
2018-01-22T13:36:12.535Z,17.63
2018-01-22T13:38:40.070Z,17.33
2018-01-22T13:41:13.521Z,21.57
2018-01-22T13:43:41.057Z,16.53
2018-01-22T13:46:08.821Z,11.77
2018-01-22T13:48:36.375Z,14.10
2018-01-22T13:51:03.917Z,15.00
2018-01-22T13:53:31.510Z,18.93
2018-01-22T13:55:59.222Z,13.50
2018-01-22T13:58:26.926Z,21.03
2018-01-22T14:00:54.526Z,17.57
2018-01-22T14:03:22.078Z,15.07
2018-01-22T14:05:49.783Z,18.37
2018-01-22T14:08:17.580Z,18.53
2018-01-22T14:10:45.114Z,17.20
2018-01-22T14:13:12.916Z,20.80
2018-01-22T14:15:40.490Z,23.87
2018-01-22T14:18:08.353Z,16.27
2018-01-22T14:20:35.894Z,12.93
2018-01-22T14:23:03.425Z,17.17
2018-01-22T14:25:31.108Z,14.77
2018-01-22T14:27:58.649Z,17.50
2018-01-22T14:30:26.346Z,12.60
2018-01-22T14:32:53.886Z,11.07
2018-01-22T14:35:21.416Z,10.50
2018-01-22T14:37:48.985Z,9.27
2018-01-22T14:40:16.582Z,11.60
2018-01-22T14:42:44.163Z,10.77
2018-01-22T14:45:11.698Z,11.53
2018-01-22T14:47:39.299Z,11.07
2018-01-22T14:50:06.895Z,10.63
2018-01-22T14:52:34.603Z,11.67
2018-01-22T14:55:02.334Z,16.10
2018-01-22T14:57:29.938Z,21.00
2018-01-22T14:59:57.490Z,16.73
2018-01-22T15:02:25.034Z,18.23
2018-01-22T15:04:52.565Z,14.93
2018-01-22T15:07:20.142Z,15.27
2018-01-22T15:09:47.686Z,21.00
2018-01-22T15:12:15.442Z,16.03
2018-01-22T15:14:42.990Z,15.23
2018-01-22T15:17:10.522Z,15.77
2018-01-22T15:19:38.340Z,15.40
2018-01-22T15:22:05.947Z,16.25
2018-01-22T15:24:33.522Z,18.17
2018-01-22T15:27:01.197Z,17.87
2018-01-22T15:29:28.735Z,19.67
2018-01-22T15:31:56.266Z,14.13
2018-01-22T15:34:23.829Z,13.95
2018-01-22T15:36:51.522Z,22.70
2018-01-22T15:39:19.169Z,15.73
2018-01-22T15:41:46.737Z,31.27
2018-01-22T15:44:14.266Z,22.43
2018-01-22T15:46:41.827Z,103.83
2018-01-22T15:49:09.370Z,26.77
2018-01-22T15:51:36.952Z,21.60
2018-01-22T15:54:04.482Z,27.17
2018-01-22T15:56:32.236Z,58.00
2018-01-22T15:58:59.777Z,41.57
2018-01-22T16:01:27.329Z,139.23
2018-01-22T16:03:54.942Z,30.97
2018-01-22T16:06:22.496Z,30.60
2018-01-22T16:08:50.191Z,28.77
2018-01-22T16:11:17.930Z,30.93
2018-01-22T16:13:45.649Z,35.93
2018-01-22T16:16:13.303Z,24.17
2018-01-22T16:18:40.858Z,23.37
2018-01-22T16:21:08.541Z,24.80
2018-01-22T16:23:36.082Z,34.67
2018-01-22T16:26:03.622Z,34.47
2018-01-22T16:28:31.395Z,26.97
2018-01-22T16:30:59.113Z,25.30
2018-01-22T16:33:26.666Z,37.37
2018-01-22T16:35:54.449Z,36.43
2018-01-22T16:38:22.167Z,20.67
2018-01-22T16:40:49.890Z,15.07
2018-01-22T16:43:17.422Z,25.80
2018-01-22T16:45:44.986Z,41.43
2018-01-22T16:48:12.566Z,31.90
2018-01-22T16:50:40.097Z,31.13
2018-01-22T16:53:07.641Z,26.13
2018-01-22T16:55:35.217Z,28.07
2018-01-22T16:58:02.755Z,20.60
2018-01-22T17:00:30.302Z,27.27
2018-01-22T17:02:58.118Z,17.87
2018-01-22T17:05:25.658Z,56.80
2018-01-22T17:07:53.190Z,31.03
2018-01-22T17:10:20.891Z,27.13
2018-01-22T17:12:48.426Z,25.13
2018-01-22T17:15:15.977Z,25.70
2018-01-22T17:17:43.650Z,27.97
2018-01-22T17:20:11.248Z,30.70
2018-01-22T17:22:38.786Z,22.50
2018-01-22T17:25:06.374Z,35.60
2018-01-22T17:27:34.022Z,29.43
2018-01-22T17:30:01.668Z,31.67
2018-01-22T17:32:29.362Z,30.83
2018-01-22T17:34:56.897Z,30.50
2018-01-22T17:37:24.598Z,42.33
2018-01-22T17:39:52.147Z,31.07
2018-01-22T17:42:19.900Z,29.47
2018-01-22T17:44:47.457Z,63.10
2018-01-22T17:47:15.070Z,44.97
2018-01-22T17:49:42.682Z,38.13
2018-01-22T17:52:10.266Z,29.13
2018-01-22T17:54:37.803Z,89.70
2018-01-22T17:57:05.402Z,53.00
2018-01-22T17:59:32.978Z,28.70
2018-01-22T18:02:00.778Z,24.53
2018-01-22T18:04:28.426Z,35.40
2018-01-22T18:06:56.208Z,26.60
2018-01-22T18:09:23.793Z,30.87
2018-01-22T18:11:51.333Z,39.60
2018-01-22T18:14:19.164Z,49.23
2018-01-22T18:16:46.778Z,27.60
2018-01-22T18:19:14.316Z,24.73
2018-01-22T18:21:41.890Z,23.20
2018-01-22T18:24:09.426Z,20.20
2018-01-22T18:26:36.981Z,23.17
2018-01-22T18:29:04.598Z,15.13
2018-01-22T18:31:32.388Z,16.83
2018-01-22T18:33:59.917Z,19.37
2018-01-22T18:36:27.474Z,19.40
2018-01-22T18:38:55.068Z,19.90
2018-01-22T18:41:22.654Z,21.97
2018-01-22T18:43:50.266Z,19.83
2018-01-22T18:46:17.790Z,17.77
2018-01-22T18:48:45.611Z,19.73
2018-01-22T18:51:13.258Z,27.60
2018-01-22T18:53:40.849Z,28.10
2018-01-22T18:56:08.423Z,19.30
2018-01-22T18:58:35.961Z,19.73
2018-01-22T19:01:03.571Z,15.63
2018-01-22T19:03:31.208Z,17.53
2018-01-22T19:05:58.922Z,21.13
2018-01-22T19:08:26.516Z,20.85
2018-01-22T19:10:54.042Z,18.80
2018-01-22T19:13:21.582Z,24.73
2018-01-22T19:15:49.117Z,18.33
2018-01-22T19:18:16.739Z,24.27
2018-01-22T19:20:44.293Z,47.40
2018-01-22T19:23:12.030Z,35.07
2018-01-22T19:25:39.582Z,32.87
2018-01-22T19:28:07.110Z,25.40
2018-01-22T19:30:34.815Z,29.47
2018-01-22T19:33:02.360Z,26.77
2018-01-22T19:35:29.912Z,47.20
2018-01-22T19:37:57.667Z,37.95
2018-01-22T19:40:25.383Z,33.07
2018-01-22T19:42:53.013Z,40.60
2018-01-22T19:45:20.727Z,38.33
2018-01-22T19:47:48.253Z,25.83
2018-01-22T19:50:15.811Z,27.03
2018-01-22T19:52:43.354Z,33.60
2018-01-22T19:55:10.964Z,32.80
2018-01-22T19:57:38.498Z,24.70
2018-01-22T20:00:06.070Z,28.33
2018-01-22T20:02:33.817Z,25.43
2018-01-22T20:05:01.366Z,21.48
2018-01-22T20:07:28.949Z,30.17
2018-01-22T20:09:56.486Z,26.13
2018-01-22T20:12:24.045Z,26.27
2018-01-22T20:14:51.622Z,21.30
2018-01-22T20:17:19.150Z,31.10
2018-01-22T20:19:46.927Z,28.58
2018-01-22T20:22:14.585Z,36.97
2018-01-22T20:24:42.147Z,28.38
2018-01-22T20:27:09.712Z,31.20
2018-01-22T20:29:37.310Z,29.20
2018-01-22T20:32:04.886Z,30.43
2018-01-22T20:34:32.579Z,30.00
2018-01-22T20:37:00.194Z,31.90
2018-01-22T20:39:27.808Z,27.23
2018-01-22T20:41:55.498Z,25.83
2018-01-22T20:44:23.079Z,32.57
2018-01-22T20:46:50.618Z,31.93
2018-01-22T20:49:18.154Z,38.67
2018-01-22T20:51:45.702Z,29.30
2018-01-22T20:54:13.705Z,34.80
2018-01-22T20:56:41.355Z,30.37
2018-01-22T20:59:08.890Z,32.60
2018-01-22T21:01:36.430Z,27.80
2018-01-22T21:04:04.014Z,24.30
2018-01-22T21:06:31.566Z,28.48
2018-01-22T21:08:59.324Z,26.37
2018-01-22T21:11:26.854Z,29.43
2018-01-22T21:13:54.470Z,24.27
2018-01-22T21:16:22.022Z,36.90
2018-01-22T21:18:49.795Z,36.37
2018-01-22T21:21:17.487Z,32.40
2018-01-22T21:23:45.132Z,33.53
2018-01-22T21:26:12.662Z,26.87
2018-01-22T21:28:40.467Z,29.93
2018-01-22T21:31:08.006Z,30.03
2018-01-22T21:33:35.592Z,23.17
2018-01-22T21:36:03.193Z,31.75
2018-01-22T21:38:30.893Z,25.37
2018-01-22T21:40:58.548Z,24.90
2018-01-22T21:43:26.275Z,38.00
2018-01-22T21:45:53.890Z,25.55
2018-01-22T21:48:21.430Z,25.77
2018-01-22T21:50:48.982Z,26.00
2018-01-22T21:53:16.714Z,22.30
2018-01-22T21:55:45.293Z,19.07
2018-01-22T21:58:12.874Z,21.23
2018-01-22T22:00:40.421Z,26.45
2018-01-22T22:03:07.970Z,22.13
2018-01-22T22:05:35.638Z,22.60
2018-01-22T22:08:03.329Z,21.63
2018-01-22T22:10:30.922Z,20.03
2018-01-22T22:12:58.666Z,21.43
2018-01-22T22:15:26.312Z,23.17
2018-01-22T22:17:53.936Z,38.40
2018-01-22T22:20:21.649Z,28.80
2018-01-22T22:22:49.299Z,26.35
2018-01-22T22:25:17.233Z,22.23
2018-01-22T22:27:44.966Z,22.13
2018-01-22T22:30:12.618Z,21.17
2018-01-22T22:32:40.162Z,21.63
2018-01-22T22:35:07.762Z,21.50
2018-01-22T22:37:35.379Z,21.63
2018-01-22T22:40:03.046Z,23.33
2018-01-22T22:42:30.716Z,23.17
2018-01-22T22:44:58.246Z,23.00
2018-01-22T22:47:25.826Z,24.73
2018-01-22T22:49:53.377Z,24.27
2018-01-22T22:52:21.078Z,22.37
2018-01-22T22:54:48.662Z,22.60
2018-01-22T22:57:16.194Z,22.40
2018-01-22T22:59:43.773Z,24.10
2018-01-22T23:02:11.313Z,24.20
2018-01-22T23:04:38.854Z,23.23
2018-01-22T23:07:06.454Z,22.50
2018-01-22T23:09:34.102Z,39.08
2018-01-22T23:12:01.712Z,26.97
2018-01-22T23:14:29.340Z,27.23
2018-01-22T23:16:56.910Z,23.13
2018-01-22T23:19:24.479Z,33.15
2018-01-22T23:21:52.090Z,42.50
2018-01-22T23:24:19.678Z,26.30
2018-01-22T23:26:47.217Z,25.90
2018-01-22T23:29:14.815Z,23.47
2018-01-22T23:31:42.390Z,21.40
2018-01-22T23:34:09.986Z,21.93
2018-01-22T23:36:37.513Z,20.43
2018-01-22T23:39:05.148Z,20.20
2018-01-22T23:41:32.680Z,21.40
2018-01-22T23:44:00.214Z,20.30
2018-01-22T23:46:27.795Z,17.30
2018-01-22T23:48:55.335Z,19.07
2018-01-22T23:51:22.874Z,22.77
2018-01-22T23:53:50.458Z,24.40
2018-01-22T23:56:18.162Z,22.63
2018-01-22T23:58:45.747Z,22.90
